createdAt,value
2019-04-16T00:00:13.351Z,63.20
2019-04-16T00:03:00.418Z,63.10
2019-04-16T00:05:34.698Z,63.00
2019-04-16T00:08:19.427Z,63.00
2019-04-16T00:11:00.806Z,62.80
2019-04-16T00:13:45.322Z,62.70
2019-04-16T00:16:14.614Z,62.60
2019-04-16T00:18:56.687Z,62.70
2019-04-16T00:21:32.290Z,62.60
2019-04-16T00:24:20.282Z,62.30
2019-04-16T00:26:51.648Z,62.10
2019-04-16T00:29:20.757Z,61.90
2019-04-16T00:32:00.163Z,62.10
2019-04-16T00:34:29.279Z,62.10
2019-04-16T00:36:58.347Z,62.30
2019-04-16T00:39:28.090Z,62.10
2019-04-16T00:41:57.401Z,62.20
2019-04-16T00:44:26.794Z,62.10
2019-04-16T00:46:56.694Z,61.90
2019-04-16T00:49:27.072Z,61.90
2019-04-16T00:51:56.606Z,62.00
2019-04-16T00:54:26.182Z,61.90
2019-04-16T00:56:55.238Z,62.00
2019-04-16T00:59:24.940Z,61.80
2019-04-16T01:01:54.087Z,61.90
2019-04-16T01:04:23.135Z,61.80
2019-04-16T01:06:52.179Z,61.80
2019-04-16T01:09:21.675Z,61.80
2019-04-16T01:11:50.659Z,61.90
2019-04-16T01:14:19.980Z,61.60
2019-04-16T01:16:49.119Z,61.40
2019-04-16T01:19:18.088Z,61.20
2019-04-16T01:21:47.138Z,61.10
2019-04-16T01:24:17.623Z,61.00
2019-04-16T01:26:47.351Z,61.10
2019-04-16T01:29:17.643Z,61.00
2019-04-16T01:32:04.409Z,61.00
2019-04-16T01:34:43.050Z,61.00
2019-04-16T01:37:40.795Z,61.00
2019-04-16T01:40:10.587Z,60.90
2019-04-16T01:42:39.674Z,61.00
2019-04-16T01:45:08.746Z,60.90
2019-04-16T01:47:38.097Z,61.00
2019-04-16T01:50:07.690Z,60.80
2019-04-16T01:52:37.175Z,60.90
2019-04-16T01:55:06.295Z,60.90
2019-04-16T01:57:35.355Z,60.80
2019-04-16T02:00:08.143Z,60.80
2019-04-16T02:02:37.412Z,60.90
2019-04-16T02:05:06.656Z,60.90
2019-04-16T02:07:36.028Z,60.80
2019-04-16T02:10:07.546Z,60.80
2019-04-16T02:12:36.298Z,60.80
2019-04-16T02:15:07.463Z,60.70
2019-04-16T02:17:36.578Z,60.70
2019-04-16T02:20:07.470Z,60.80
2019-04-16T02:22:37.101Z,60.70
2019-04-16T02:25:06.491Z,60.90
2019-04-16T02:27:35.540Z,60.70
2019-04-16T02:30:05.868Z,60.60
2019-04-16T02:32:35.098Z,60.60
2019-04-16T02:35:07.576Z,60.60
2019-04-16T02:37:37.759Z,60.60
2019-04-16T02:40:07.128Z,60.60
2019-04-16T02:42:36.177Z,60.60
2019-04-16T02:45:05.269Z,60.70
2019-04-16T02:47:40.228Z,60.70
2019-04-16T02:50:07.174Z,60.60
2019-04-16T02:53:01.682Z,60.60
2019-04-16T02:55:43.892Z,60.50
2019-04-16T02:58:24.727Z,60.50
2019-04-16T03:01:10.963Z,60.60
2019-04-16T03:03:56.266Z,60.70
2019-04-16T03:06:26.443Z,60.80
2019-04-16T03:08:55.426Z,60.40
2019-04-16T03:11:24.437Z,60.60
2019-04-16T03:13:58.271Z,60.50
2019-04-16T03:16:55.327Z,60.50
2019-04-16T03:19:33.736Z,60.40
2019-04-16T03:22:03.722Z,60.50
2019-04-16T03:24:32.915Z,60.40
2019-04-16T03:27:04.613Z,60.20
2019-04-16T03:29:32.786Z,60.30
2019-04-16T03:32:01.841Z,60.20
2019-04-16T03:34:30.839Z,60.20
2019-04-16T03:37:01.860Z,60.30
2019-04-16T03:39:31.988Z,60.20
2019-04-16T03:42:01.085Z,59.90
2019-04-16T03:44:30.083Z,60.10
2019-04-16T03:46:59.202Z,60.00
2019-04-16T03:49:28.502Z,59.90
2019-04-16T03:51:58.362Z,59.90
2019-04-16T03:54:27.475Z,59.90
2019-04-16T03:56:56.543Z,59.80
2019-04-16T03:59:26.271Z,59.90
2019-04-16T04:01:55.299Z,59.80
2019-04-16T04:04:28.934Z,59.80
2019-04-16T04:06:55.082Z,59.80
2019-04-16T04:09:24.128Z,59.70
2019-04-16T04:11:53.170Z,60.40
2019-04-16T04:14:23.521Z,59.70
2019-04-16T04:16:52.894Z,59.60
2019-04-16T04:19:21.934Z,59.80
2019-04-16T04:21:53.738Z,59.60
2019-04-16T04:24:21.790Z,59.60
2019-04-16T04:26:50.860Z,60.10
2019-04-16T04:29:20.704Z,59.50
2019-04-16T04:31:50.706Z,59.40
2019-04-16T04:34:19.713Z,59.40
2019-04-16T04:36:49.415Z,59.40
2019-04-16T04:39:18.551Z,59.40
2019-04-16T04:41:48.027Z,59.50
2019-04-16T04:44:17.105Z,59.40
2019-04-16T04:46:46.963Z,59.30
2019-04-16T04:49:16.199Z,59.30
2019-04-16T04:51:46.049Z,59.30
2019-04-16T04:54:15.090Z,59.20
2019-04-16T04:56:44.142Z,59.20
2019-04-16T04:59:13.415Z,59.10
2019-04-16T05:01:42.722Z,59.20
2019-04-16T05:04:28.346Z,59.10
2019-04-16T05:06:59.910Z,59.00
2019-04-16T05:09:29.485Z,59.00
2019-04-16T05:12:00.309Z,58.90
2019-04-16T05:14:29.278Z,58.90
2019-04-16T05:16:58.327Z,58.90
2019-04-16T05:19:27.405Z,58.90
2019-04-16T05:21:56.455Z,58.70
2019-04-16T05:24:28.849Z,58.90
2019-04-16T05:26:56.509Z,58.70
2019-04-16T05:29:25.926Z,58.70
2019-04-16T05:31:57.362Z,58.60
2019-04-16T05:34:26.115Z,58.50
2019-04-16T05:36:55.168Z,58.50
2019-04-16T05:39:28.362Z,58.40
2019-04-16T05:41:55.611Z,58.20
2019-04-16T05:44:25.233Z,58.50
2019-04-16T05:46:54.288Z,58.50
2019-04-16T05:49:25.866Z,58.70
2019-04-16T05:51:54.730Z,59.20
2019-04-16T05:54:44.498Z,58.40
2019-04-16T05:57:16.731Z,58.40
2019-04-16T05:59:46.585Z,58.40
2019-04-16T06:02:32.138Z,58.80
2019-04-16T06:05:01.442Z,58.80
2019-04-16T06:07:30.533Z,58.80
2019-04-16T06:09:59.682Z,58.90
2019-04-16T06:12:39.653Z,58.80
2019-04-16T06:15:22.271Z,58.80
2019-04-16T06:18:07.337Z,58.80
2019-04-16T06:20:58.643Z,58.90
2019-04-16T06:23:41.814Z,59.40
2019-04-16T06:26:25.611Z,58.70
2019-04-16T06:29:12.326Z,58.20
2019-04-16T06:31:47.761Z,58.00
2019-04-16T06:34:36.764Z,57.90
2019-04-16T06:37:27.993Z,57.70
2019-04-16T06:40:15.917Z,57.50
2019-04-16T06:43:09.776Z,57.50
2019-04-16T06:45:48.311Z,57.50
2019-04-16T06:48:22.470Z,57.40
2019-04-16T06:51:12.517Z,57.90
2019-04-16T06:53:47.891Z,57.60
2019-04-16T06:56:51.565Z,57.50
2019-04-16T06:59:44.247Z,57.40
2019-04-16T07:03:01.282Z,57.90
2019-04-16T07:05:44.286Z,57.20
2019-04-16T07:08:38.131Z,57.10
2019-04-16T07:11:06.446Z,56.90
2019-04-16T07:13:35.512Z,56.90
2019-04-16T07:16:04.702Z,56.80
2019-04-16T07:18:35.630Z,56.80
2019-04-16T07:21:04.814Z,56.70
2019-04-16T07:23:34.170Z,56.70
2019-04-16T07:26:04.298Z,56.40
2019-04-16T07:28:42.865Z,56.50
2019-04-16T07:31:34.241Z,56.50
2019-04-16T07:34:28.934Z,56.50
2019-04-16T07:37:05.736Z,56.50
2019-04-16T07:39:59.802Z,56.40
2019-04-16T07:42:51.971Z,56.40
2019-04-16T07:45:37.194Z,56.30
2019-04-16T07:48:23.792Z,56.10
2019-04-16T07:51:11.131Z,56.10
2019-04-16T07:53:57.296Z,56.10
2019-04-16T07:56:27.019Z,56.00
2019-04-16T07:59:00.226Z,55.90
2019-04-16T08:01:26.834Z,55.90
2019-04-16T08:03:57.449Z,55.80
2019-04-16T08:06:27.175Z,55.90
2019-04-16T08:08:57.060Z,55.80
2019-04-16T08:11:27.027Z,55.60
2019-04-16T08:13:56.066Z,55.60
2019-04-16T08:16:25.111Z,55.50
2019-04-16T08:18:54.467Z,55.50
2019-04-16T08:21:23.786Z,55.60
2019-04-16T08:24:16.721Z,55.60
2019-04-16T08:26:46.121Z,55.60
2019-04-16T08:29:15.455Z,55.70
2019-04-16T08:31:47.030Z,55.60
2019-04-16T08:34:16.399Z,55.50
2019-04-16T08:36:45.486Z,55.30
2019-04-16T08:39:16.590Z,55.30
2019-04-16T08:41:45.734Z,55.20
2019-04-16T08:44:14.804Z,55.20
2019-04-16T08:46:44.157Z,55.20
2019-04-16T08:49:15.197Z,55.10
2019-04-16T08:51:44.630Z,56.30
2019-04-16T08:54:17.756Z,56.00
2019-04-16T08:56:44.636Z,56.30
2019-04-16T08:59:13.630Z,56.20
2019-04-16T09:01:43.027Z,56.00
2019-04-16T09:04:12.087Z,55.90
2019-04-16T09:06:42.915Z,55.80
2019-04-16T09:09:34.575Z,55.60
2019-04-16T09:12:09.213Z,56.90
2019-04-16T09:14:44.713Z,57.00
2019-04-16T09:17:29.146Z,57.10
2019-04-16T09:20:05.627Z,56.90
2019-04-16T09:22:48.142Z,56.80
2019-04-16T09:25:22.919Z,56.80
2019-04-16T09:28:01.906Z,56.70
2019-04-16T09:30:59.490Z,56.80
2019-04-16T09:33:38.654Z,56.20
2019-04-16T09:36:22.259Z,56.20
2019-04-16T09:38:56.025Z,56.00
2019-04-16T09:41:31.311Z,55.90
2019-04-16T09:44:00.726Z,55.80
2019-04-16T09:46:49.595Z,55.90
2019-04-16T09:49:04.904Z,55.80
2019-04-16T09:51:32.813Z,55.70
2019-04-16T09:54:01.859Z,55.70
2019-04-16T09:56:31.773Z,55.40
2019-04-16T09:59:19.595Z,55.30
2019-04-16T10:01:52.110Z,55.40
2019-04-16T10:04:21.920Z,55.30
2019-04-16T10:06:51.312Z,55.20
2019-04-16T10:09:22.521Z,55.30
2019-04-16T10:11:51.754Z,55.30
2019-04-16T10:14:20.863Z,55.30
2019-04-16T10:16:49.922Z,55.10
2019-04-16T10:19:21.224Z,55.00
2019-04-16T10:21:53.209Z,55.20
2019-04-16T10:24:43.292Z,55.00
2019-04-16T10:27:17.301Z,55.00
2019-04-16T10:29:46.399Z,55.00
2019-04-16T10:32:17.919Z,54.90
2019-04-16T10:34:46.553Z,54.80
2019-04-16T10:37:15.691Z,54.80
2019-04-16T10:40:05.051Z,54.60
2019-04-16T10:42:50.279Z,54.60
2019-04-16T10:45:37.846Z,54.80
2019-04-16T10:48:43.946Z,54.80
2019-04-16T10:51:36.876Z,54.70
2019-04-16T10:54:27.719Z,54.70
2019-04-16T10:57:21.824Z,54.50
2019-04-16T11:00:19.011Z,54.60
2019-04-16T11:02:52.428Z,54.60
2019-04-16T11:05:39.075Z,54.60
2019-04-16T11:08:09.134Z,54.60
2019-04-16T11:10:38.210Z,54.70
2019-04-16T11:13:09.470Z,54.50
2019-04-16T11:15:38.635Z,54.40
2019-04-16T11:18:08.022Z,54.50
2019-04-16T11:20:37.134Z,54.40
2019-04-16T11:23:07.641Z,54.50
2019-04-16T11:25:37.386Z,54.50
2019-04-16T11:28:06.467Z,54.40
2019-04-16T11:30:43.730Z,54.40
2019-04-16T11:33:12.766Z,54.50
2019-04-16T11:35:41.971Z,54.40
2019-04-16T11:38:11.933Z,54.50
2019-04-16T11:40:41.292Z,54.50
2019-04-16T11:43:10.763Z,54.40
2019-04-16T11:45:39.866Z,54.50
2019-04-16T11:48:09.066Z,54.40
2019-04-16T11:50:38.330Z,54.40
2019-04-16T11:53:09.102Z,54.40
2019-04-16T11:55:38.563Z,54.40
2019-04-16T11:58:18.153Z,54.30
2019-04-16T12:00:55.766Z,54.40
2019-04-16T12:03:50.575Z,54.30
2019-04-16T12:06:47.886Z,54.30
2019-04-16T12:09:37.259Z,54.30
2019-04-16T12:12:16.055Z,54.40
2019-04-16T12:15:22.658Z,54.30
2019-04-16T12:18:13.150Z,54.10
2019-04-16T12:20:49.179Z,54.00
2019-04-16T12:23:33.868Z,54.20
2019-04-16T12:26:37.592Z,54.10
2019-04-16T12:29:24.561Z,54.10
2019-04-16T12:32:05.312Z,54.10
2019-04-16T12:34:51.718Z,54.10
2019-04-16T12:37:37.347Z,54.10
2019-04-16T12:40:26.431Z,54.10
2019-04-16T12:43:01.786Z,54.10
2019-04-16T12:45:37.768Z,53.90
2019-04-16T12:48:25.134Z,54.00
2019-04-16T12:51:16.008Z,54.10
2019-04-16T12:53:56.257Z,54.10
2019-04-16T12:57:00.190Z,54.10
2019-04-16T12:59:42.273Z,54.00
2019-04-16T13:02:20.569Z,54.00
2019-04-16T13:05:07.313Z,54.60
2019-04-16T13:08:07.710Z,53.90
2019-04-16T13:10:44.197Z,53.90
2019-04-16T13:13:30.875Z,54.00
2019-04-16T13:16:05.518Z,54.10
2019-04-16T13:18:52.415Z,54.40
2019-04-16T13:21:33.527Z,54.10
2019-04-16T13:24:13.738Z,54.10
2019-04-16T13:27:17.597Z,54.10
2019-04-16T13:29:46.846Z,54.10
2019-04-16T13:32:15.900Z,54.00
2019-04-16T13:34:46.738Z,54.10
2019-04-16T13:37:15.796Z,54.20
2019-04-16T13:40:03.205Z,54.10
2019-04-16T13:42:33.555Z,54.10
2019-04-16T13:45:27.830Z,54.10
2019-04-16T13:48:13.945Z,54.20
2019-04-16T13:50:45.524Z,54.90
2019-04-16T13:53:32.430Z,54.20
2019-04-16T13:56:26.623Z,54.20
2019-04-16T13:59:23.955Z,54.10
2019-04-16T14:02:04.410Z,54.20
2019-04-16T14:04:36.961Z,54.20
2019-04-16T14:07:06.691Z,54.10
2019-04-16T14:09:36.100Z,54.30
2019-04-16T14:12:05.404Z,54.90
2019-04-16T14:14:34.521Z,54.30
2019-04-16T14:17:10.003Z,54.30
2019-04-16T14:19:37.915Z,54.20
2019-04-16T14:22:05.679Z,54.30
2019-04-16T14:24:34.758Z,54.40
2019-04-16T14:27:04.523Z,54.30
2019-04-16T14:29:35.819Z,54.40
2019-04-16T14:32:04.374Z,54.40
2019-04-16T14:34:46.307Z,54.40
2019-04-16T14:37:15.642Z,54.40
2019-04-16T14:39:48.905Z,54.50
2019-04-16T14:42:19.132Z,54.50
2019-04-16T14:44:55.739Z,54.60
2019-04-16T14:47:24.810Z,54.60
2019-04-16T14:49:53.846Z,54.50
2019-04-16T14:52:23.386Z,54.60
2019-04-16T14:55:01.011Z,54.60
2019-04-16T14:57:30.117Z,54.70
2019-04-16T15:00:17.631Z,54.70
2019-04-16T15:03:04.698Z,54.70
2019-04-16T15:05:49.726Z,54.80
2019-04-16T15:08:37.390Z,54.80
2019-04-16T15:11:31.530Z,54.80
2019-04-16T15:14:08.522Z,54.80
2019-04-16T15:16:45.803Z,54.80
2019-04-16T15:19:52.626Z,54.80
2019-04-16T15:22:46.398Z,54.80
2019-04-16T15:25:22.578Z,54.80
2019-04-16T15:28:05.097Z,54.50
2019-04-16T15:30:47.203Z,54.40
2019-04-16T15:33:35.665Z,54.20
2019-04-16T15:36:31.432Z,54.30
2019-04-16T15:39:35.156Z,54.40
2019-04-16T15:42:17.472Z,54.20
2019-04-16T15:47:51.583Z,54.30
2019-04-16T15:50:35.905Z,54.40
2019-04-16T15:53:10.758Z,54.30
2019-04-16T15:55:59.085Z,54.20
2019-04-16T15:58:50.922Z,54.20
2019-04-16T16:01:35.167Z,54.10
2019-04-16T16:04:23.162Z,54.00
2019-04-16T16:06:57.520Z,54.00
2019-04-16T16:09:31.594Z,55.40
2019-04-16T16:12:05.873Z,55.40
2019-04-16T16:14:38.724Z,54.70
2019-04-16T16:17:05.827Z,54.50
2019-04-16T16:19:35.190Z,54.50
2019-04-16T16:22:04.478Z,54.50
2019-04-16T16:24:35.955Z,54.50
2019-04-16T16:27:04.281Z,54.60
2019-04-16T16:29:33.926Z,54.70
2019-04-16T16:32:03.141Z,55.20
2019-04-16T16:34:32.217Z,54.70
2019-04-16T16:37:01.318Z,54.70
2019-04-16T16:39:30.307Z,54.60
2019-04-16T16:41:59.376Z,54.70
2019-04-16T16:44:28.494Z,54.90
2019-04-16T16:47:26.961Z,54.90
2019-04-16T16:49:56.028Z,55.00
2019-04-16T16:52:56.175Z,55.10
2019-04-16T16:55:31.458Z,55.10
2019-04-16T16:58:20.907Z,55.40
2019-04-16T17:01:04.933Z,55.60
2019-04-16T17:03:52.662Z,56.00
2019-04-16T17:06:22.362Z,56.30
2019-04-16T17:08:51.434Z,56.20
2019-04-16T17:11:20.474Z,56.00
2019-04-16T17:13:49.512Z,56.10
2019-04-16T17:16:18.714Z,56.00
2019-04-16T17:18:48.266Z,55.90
2019-04-16T17:21:17.321Z,56.00
2019-04-16T17:23:46.392Z,56.00
2019-04-16T17:26:16.668Z,56.00
2019-04-16T17:28:46.147Z,56.10
2019-04-16T17:31:15.512Z,56.10
2019-04-16T17:33:44.579Z,56.20
2019-04-16T17:36:13.555Z,56.30
2019-04-16T17:38:42.590Z,56.40
2019-04-16T17:41:14.891Z,56.40
2019-04-16T17:44:03.541Z,56.60
2019-04-16T17:46:56.643Z,56.70
2019-04-16T17:49:39.523Z,57.30
2019-04-16T17:52:26.983Z,58.40
2019-04-16T17:55:21.030Z,59.20
2019-04-16T17:57:55.611Z,59.50
2019-04-16T18:00:42.476Z,61.10
2019-04-16T18:03:37.020Z,62.70
2019-04-16T18:06:20.631Z,61.80
2019-04-16T18:09:11.931Z,61.30
2019-04-16T18:12:02.070Z,61.30
2019-04-16T18:14:39.879Z,61.30
2019-04-16T18:17:15.021Z,61.50
2019-04-16T18:19:55.418Z,61.40
2019-04-16T18:22:36.243Z,62.30
2019-04-16T18:25:26.136Z,61.40
2019-04-16T18:28:04.233Z,61.50
2019-04-16T18:30:56.739Z,62.20
2019-04-16T18:33:57.030Z,62.10
2019-04-16T18:36:33.515Z,61.90
2019-04-16T18:39:21.630Z,61.80
2019-04-16T18:42:00.879Z,61.90
2019-04-16T18:44:35.449Z,61.80
2019-04-16T18:47:14.226Z,61.70
2019-04-16T18:49:44.229Z,61.60
2019-04-16T18:52:13.280Z,61.80
2019-04-16T18:54:42.736Z,61.60
2019-04-16T18:57:11.886Z,61.60
2019-04-16T18:59:40.934Z,61.50
2019-04-16T19:02:11.248Z,61.40
2019-04-16T19:04:40.323Z,61.50
2019-04-16T19:07:09.434Z,61.40
2019-04-16T19:09:38.863Z,61.20
2019-04-16T19:12:08.542Z,61.20
2019-04-16T19:14:37.588Z,61.20
2019-04-16T19:17:07.252Z,61.20
2019-04-16T19:19:36.254Z,61.60
2019-04-16T19:22:05.307Z,61.50
2019-04-16T19:24:34.403Z,61.40
2019-04-16T19:27:03.517Z,61.30
2019-04-16T19:29:32.507Z,61.20
2019-04-16T19:32:01.815Z,61.30
2019-04-16T19:34:30.878Z,61.30
2019-04-16T19:37:01.013Z,60.80
2019-04-16T19:39:31.051Z,60.50
2019-04-16T19:42:00.363Z,60.30
2019-04-16T19:44:33.215Z,60.40
2019-04-16T19:47:00.898Z,60.40
2019-04-16T19:49:30.439Z,60.30
2019-04-16T19:51:59.496Z,60.30
2019-04-16T19:54:31.493Z,60.40
2019-04-16T19:56:59.963Z,60.60
2019-04-16T19:59:29.260Z,60.80
2019-04-16T20:02:00.219Z,60.60
2019-04-16T20:04:29.916Z,60.30
2019-04-16T20:07:00.874Z,60.30
2019-04-16T20:09:30.164Z,60.40
2019-04-16T20:11:59.616Z,60.60
2019-04-16T20:14:28.679Z,60.60
2019-04-16T20:16:57.733Z,60.80
2019-04-16T20:19:27.130Z,60.90
2019-04-16T20:21:56.191Z,60.80
2019-04-16T20:24:25.168Z,61.70
2019-04-16T20:26:54.234Z,61.10
2019-04-16T20:29:23.475Z,61.80
2019-04-16T20:31:52.443Z,60.70
2019-04-16T20:36:11.657Z,59.80
2019-04-16T20:38:40.658Z,60.70
2019-04-16T20:41:09.718Z,60.80
2019-04-16T20:43:38.727Z,61.30
2019-04-16T20:46:08.077Z,61.70
2019-04-16T20:48:37.056Z,61.80
2019-04-16T20:51:06.567Z,61.90
2019-04-16T20:53:37.979Z,62.00
2019-04-16T20:56:10.019Z,62.10
2019-04-16T20:58:37.915Z,62.30
2019-04-16T21:01:07.086Z,62.40
2019-04-16T21:03:36.739Z,62.40
2019-04-16T21:06:07.835Z,62.40
2019-04-16T21:08:37.426Z,62.50
2019-04-16T21:11:08.797Z,62.60
2019-04-16T21:13:37.319Z,62.70
2019-04-16T21:16:06.698Z,62.80
2019-04-16T21:18:35.835Z,62.80
2019-04-16T21:21:05.611Z,63.20
2019-04-16T21:23:35.563Z,62.80
2019-04-16T21:26:04.742Z,62.80
2019-04-16T21:29:02.220Z,62.90
2019-04-16T21:31:37.123Z,62.80
2019-04-16T21:34:15.398Z,62.80
2019-04-16T21:36:49.901Z,62.90
2019-04-16T21:39:47.080Z,62.80
2019-04-16T21:42:15.380Z,62.90
2019-04-16T21:44:44.738Z,63.00
2019-04-16T21:47:15.588Z,63.20
2019-04-16T21:49:45.886Z,63.20
2019-04-16T21:52:16.342Z,63.30
2019-04-16T21:54:45.937Z,63.40
2019-04-16T21:57:15.383Z,63.40
2019-04-16T21:59:45.177Z,63.30
2019-04-16T22:02:37.863Z,63.30
2019-04-16T22:05:09.213Z,63.40
2019-04-16T22:07:38.262Z,64.10
2019-04-16T22:10:08.084Z,63.40
2019-04-16T22:12:39.310Z,63.80
2019-04-16T22:15:08.701Z,63.80
2019-04-16T22:17:38.199Z,63.90
2019-04-16T22:20:07.438Z,64.10
2019-04-16T22:22:36.538Z,64.10
2019-04-16T22:25:05.725Z,64.00
2019-04-16T22:27:36.827Z,64.00
2019-04-16T22:30:06.063Z,64.00
2019-04-16T22:32:35.157Z,64.00
2019-04-16T22:35:04.693Z,63.90
2019-04-16T22:37:34.148Z,64.20
2019-04-16T22:40:31.387Z,64.20
2019-04-16T22:43:34.570Z,64.20
2019-04-16T22:46:27.430Z,64.20
2019-04-16T22:48:58.384Z,64.00
2019-04-16T22:51:27.893Z,63.80
2019-04-16T22:53:57.195Z,64.70
2019-04-16T22:56:36.342Z,63.80
2019-04-16T22:59:07.752Z,64.60
2019-04-16T23:01:38.619Z,63.90
2019-04-16T23:04:07.590Z,63.90
2019-04-16T23:06:38.722Z,64.10
2019-04-16T23:09:08.827Z,63.80
2019-04-16T23:11:39.097Z,63.90
2019-04-16T23:14:08.638Z,63.90
2019-04-16T23:16:41.739Z,64.00
2019-04-16T23:19:09.624Z,63.90
2019-04-16T23:21:42.329Z,63.90
2019-04-16T23:24:10.216Z,63.90
2019-04-16T23:26:39.192Z,63.90
2019-04-16T23:29:08.273Z,63.90
2019-04-16T23:31:37.403Z,63.90
2019-04-16T23:34:07.168Z,63.90
2019-04-16T23:36:37.172Z,64.00
2019-04-16T23:39:07.380Z,63.90
2019-04-16T23:41:36.878Z,64.00
2019-04-16T23:44:25.955Z,63.90
2019-04-16T23:47:14.756Z,63.90
2019-04-16T23:50:00.278Z,63.90
2019-04-16T23:52:35.272Z,64.00
2019-04-16T23:55:17.554Z,64.10
2019-04-16T23:58:01.912Z,64.10
